createdAt,value
2018-08-12T00:02:29.083Z,9.50
2018-08-12T00:04:58.051Z,9.40
2018-08-12T00:07:27.699Z,9.40
2018-08-12T00:09:56.001Z,9.30
2018-08-12T00:12:23.998Z,9.20
2018-08-12T00:14:52.390Z,9.20
2018-08-12T00:17:20.838Z,9.20
2018-08-12T00:19:49.468Z,9.20
2018-08-12T00:22:17.784Z,9.20
2018-08-12T00:24:46.115Z,9.10
2018-08-12T00:27:14.484Z,9.10
2018-08-12T00:29:42.711Z,9.10
2018-08-12T00:32:11.033Z,9.10
2018-08-12T00:34:39.437Z,9.00
2018-08-12T00:37:08.496Z,8.90
2018-08-12T00:39:36.662Z,8.90
2018-08-12T00:42:04.929Z,8.80
2018-08-12T00:44:34.006Z,8.80
2018-08-12T00:47:02.619Z,8.70
2018-08-12T00:49:31.089Z,8.70
2018-08-12T00:51:59.863Z,8.70
2018-08-12T00:54:28.085Z,8.70
2018-08-12T00:56:56.659Z,8.60
2018-08-12T00:59:24.858Z,8.60
2018-08-12T01:01:53.092Z,8.70
2018-08-12T01:04:21.288Z,8.80
2018-08-12T01:06:49.671Z,8.80
2018-08-12T01:09:18.242Z,8.80
2018-08-12T01:11:46.521Z,8.70
2018-08-12T01:14:14.879Z,8.70
2018-08-12T01:16:43.401Z,8.60
2018-08-12T01:19:12.022Z,8.50
2018-08-12T01:21:40.390Z,8.50
2018-08-12T01:24:08.604Z,8.40
2018-08-12T01:26:36.756Z,8.50
2018-08-12T01:29:05.156Z,8.50
2018-08-12T01:31:33.390Z,8.40
2018-08-12T01:34:01.809Z,8.40
2018-08-12T01:36:30.062Z,8.30
2018-08-12T01:38:58.348Z,8.30
2018-08-12T01:41:26.671Z,8.20
2018-08-12T01:43:54.974Z,8.20
2018-08-12T01:46:23.762Z,8.10
2018-08-12T01:48:52.251Z,8.10
2018-08-12T01:51:20.785Z,8.10
2018-08-12T01:53:49.293Z,8.10
2018-08-12T01:56:17.909Z,8.10
2018-08-12T01:58:46.999Z,8.00
2018-08-12T02:01:15.586Z,8.00
2018-08-12T02:03:44.028Z,7.90
2018-08-12T02:06:12.274Z,7.90
2018-08-12T02:08:40.531Z,7.80
2018-08-12T02:11:09.961Z,7.80
2018-08-12T02:13:38.437Z,7.80
2018-08-12T02:16:06.709Z,7.80
2018-08-12T02:18:34.979Z,7.80
2018-08-12T02:23:31.398Z,7.70
2018-08-12T02:26:00.279Z,7.70
2018-08-12T02:28:28.633Z,7.60
2018-08-12T02:30:56.824Z,7.60
2018-08-12T02:33:26.105Z,7.60
2018-08-12T02:35:54.624Z,7.60
2018-08-12T02:38:22.984Z,7.60
2018-08-12T02:40:51.329Z,7.70
2018-08-12T02:43:19.659Z,7.70
2018-08-12T02:45:48.231Z,7.70
2018-08-12T02:48:16.527Z,7.70
2018-08-12T02:50:45.435Z,7.70
2018-08-12T02:53:14.090Z,7.70
2018-08-12T02:55:46.628Z,7.70
2018-08-12T02:58:15.382Z,7.70
2018-08-12T03:00:43.876Z,7.70
2018-08-12T03:03:12.278Z,7.60
2018-08-12T03:05:41.040Z,7.60
2018-08-12T03:08:09.458Z,7.60
2018-08-12T03:10:38.191Z,7.60
2018-08-12T03:13:06.640Z,7.60
2018-08-12T03:15:35.507Z,7.60
2018-08-12T03:18:04.178Z,7.50
2018-08-12T03:20:32.344Z,7.50
2018-08-12T03:23:01.142Z,7.50
2018-08-12T03:25:29.546Z,7.50
2018-08-12T03:27:58.482Z,7.50
2018-08-12T03:30:26.957Z,7.40
2018-08-12T03:32:55.523Z,7.40
2018-08-12T03:35:23.865Z,7.30
2018-08-12T03:37:53.018Z,7.30
2018-08-12T03:40:21.867Z,7.30
2018-08-12T03:42:50.302Z,7.20
2018-08-12T03:45:18.498Z,7.20
2018-08-12T03:47:46.757Z,7.20
2018-08-12T03:55:40.363Z,7.20
2018-08-12T03:59:38.192Z,7.20
2018-08-12T04:02:06.816Z,7.20
2018-08-12T04:04:35.354Z,7.20
2018-08-12T04:07:03.720Z,7.20
2018-08-12T04:09:32.599Z,7.30
2018-08-12T04:12:01.201Z,7.30
2018-08-12T04:14:29.843Z,7.30
2018-08-12T04:16:59.937Z,7.40
2018-08-12T04:19:29.628Z,7.40
2018-08-12T04:21:58.090Z,7.40
2018-08-12T04:24:26.808Z,7.50
2018-08-12T04:26:55.466Z,7.60
2018-08-12T04:29:24.101Z,7.60
2018-08-12T04:31:52.085Z,7.70
2018-08-12T04:34:19.995Z,7.70
2018-08-12T04:36:47.982Z,7.80
2018-08-12T04:39:16.060Z,8.00
2018-08-12T04:41:44.359Z,8.10
2018-08-12T04:44:12.584Z,8.20
2018-08-12T04:46:40.457Z,8.40
2018-08-12T04:49:09.447Z,8.50
2018-08-12T04:51:37.978Z,8.70
2018-08-12T04:54:06.405Z,8.80
2018-08-12T04:56:34.773Z,9.00
2018-08-12T04:59:02.733Z,9.20
2018-08-12T05:01:30.523Z,9.30
2018-08-12T05:03:58.608Z,9.50
2018-08-12T05:06:26.550Z,9.70
2018-08-12T05:08:54.432Z,9.90
2018-08-12T05:11:22.471Z,10.10
2018-08-12T05:13:50.367Z,10.20
2018-08-12T05:16:18.272Z,10.40
2018-08-12T05:18:46.361Z,10.60
2018-08-12T05:21:14.206Z,10.80
2018-08-12T05:23:42.124Z,10.90
2018-08-12T05:26:10.731Z,11.10
2018-08-12T05:28:39.416Z,11.40
2018-08-12T05:31:07.416Z,11.60
2018-08-12T05:33:35.450Z,11.80
2018-08-12T05:36:04.083Z,12.00
2018-08-12T05:38:33.207Z,12.20
2018-08-12T05:41:02.587Z,12.50
2018-08-12T05:43:30.561Z,12.70
2018-08-12T05:45:58.592Z,12.90
2018-08-12T05:48:26.462Z,13.20
2018-08-12T05:50:54.523Z,13.40
2018-08-12T05:53:22.699Z,13.60
2018-08-12T05:55:50.641Z,13.80
2018-08-12T05:58:18.735Z,13.90
2018-08-12T06:00:46.892Z,14.10
2018-08-12T06:03:14.862Z,14.20
2018-08-12T06:05:42.878Z,14.30
2018-08-12T06:10:56.407Z,14.60
2018-08-12T06:13:24.379Z,14.80
2018-08-12T06:15:52.250Z,15.00
2018-08-12T06:18:20.073Z,15.20
2018-08-12T06:20:48.055Z,15.30
2018-08-12T06:23:16.035Z,15.60
2018-08-12T06:25:43.978Z,15.80
2018-08-12T06:28:11.994Z,16.00
2018-08-12T06:30:39.885Z,16.30
2018-08-12T06:33:08.760Z,16.50
2018-08-12T06:35:38.598Z,16.70
2018-08-12T06:38:07.420Z,16.90
2018-08-12T06:40:35.635Z,17.20
2018-08-12T06:43:05.945Z,17.30
2018-08-12T06:45:34.870Z,17.50
2018-08-12T06:48:04.695Z,17.60
2018-08-12T06:50:33.601Z,17.80
2018-08-12T06:53:02.661Z,17.90
2018-08-12T06:55:31.670Z,18.10
2018-08-12T06:58:00.372Z,18.20
2018-08-12T07:00:29.527Z,18.40
2018-08-12T07:02:58.346Z,18.60
2018-08-12T07:05:27.476Z,18.70
2018-08-12T07:07:56.534Z,18.90
2018-08-12T07:10:26.415Z,19.10
2018-08-12T07:13:00.875Z,19.30
2018-08-12T07:15:30.883Z,19.40
2018-08-12T07:18:00.631Z,19.60
2018-08-12T07:20:35.135Z,19.80
2018-08-12T07:28:50.263Z,20.40
2018-08-12T07:31:19.704Z,20.40
2018-08-12T07:33:48.793Z,20.50
2018-08-12T07:36:18.577Z,20.60
2018-08-12T07:38:49.017Z,20.70
2018-08-12T07:41:18.837Z,20.80
2018-08-12T07:43:49.095Z,20.80
2018-08-12T07:46:18.361Z,20.90
2018-08-12T07:48:48.556Z,21.00
2018-08-12T07:51:18.084Z,21.10
2018-08-12T07:53:47.962Z,21.20
2018-08-12T07:56:17.922Z,21.30
2018-08-12T07:58:48.025Z,21.40
2018-08-12T08:01:17.985Z,21.50
2018-08-12T08:03:47.675Z,21.60
2018-08-12T08:06:17.484Z,21.70
2018-08-12T08:08:47.332Z,21.70
2018-08-12T08:11:17.394Z,21.90
2018-08-12T08:13:47.416Z,22.00
2018-08-12T08:19:10.618Z,22.10
2018-08-12T08:21:40.693Z,22.20
2018-08-12T08:24:10.227Z,22.20
2018-08-12T08:26:39.945Z,22.20
2018-08-12T08:29:10.711Z,22.10
2018-08-12T08:31:40.221Z,22.10
2018-08-12T08:34:10.109Z,22.10
2018-08-12T08:36:40.136Z,22.10
2018-08-12T08:39:12.814Z,22.20
2018-08-12T08:41:42.773Z,22.30
2018-08-12T08:44:12.531Z,22.50
2018-08-12T08:46:42.361Z,22.70
2018-08-12T08:49:11.643Z,22.80
2018-08-12T08:51:41.286Z,23.00
2018-08-12T08:54:10.351Z,23.20
2018-08-12T08:56:39.511Z,23.40
2018-08-12T08:59:08.544Z,23.60
2018-08-12T09:01:37.333Z,23.70
2018-08-12T09:04:06.880Z,23.70
2018-08-12T09:06:36.569Z,23.80
2018-08-12T09:09:09.669Z,24.00
2018-08-12T09:11:38.491Z,24.10
2018-08-12T09:14:07.613Z,24.30
2018-08-12T09:16:36.715Z,24.40
2018-08-12T09:19:05.699Z,24.60
2018-08-12T09:21:34.856Z,24.70
2018-08-12T09:24:03.756Z,24.80
2018-08-12T09:26:32.884Z,25.00
2018-08-12T09:29:02.276Z,25.00
2018-08-12T09:31:32.508Z,25.10
2018-08-12T09:36:54.563Z,25.10
2018-08-12T09:39:23.817Z,25.10
2018-08-12T09:41:53.406Z,24.80
2018-08-12T09:44:22.277Z,24.80
2018-08-12T09:46:51.358Z,24.90
2018-08-12T09:49:20.755Z,25.00
2018-08-12T09:51:49.790Z,25.10
2018-08-12T09:54:19.488Z,25.20
2018-08-12T09:56:48.545Z,25.20
2018-08-12T09:59:19.610Z,25.10
2018-08-12T10:01:49.565Z,25.10
2018-08-12T10:04:20.711Z,25.20
2018-08-12T10:07:02.881Z,25.30
2018-08-12T10:09:34.322Z,25.30
2018-08-12T10:12:05.808Z,25.30
2018-08-12T10:17:28.709Z,25.80
2018-08-12T10:19:58.479Z,25.80
2018-08-12T10:22:28.634Z,25.80
2018-08-12T10:25:03.859Z,25.80
2018-08-12T10:27:33.313Z,25.80
2018-08-12T10:30:04.655Z,25.90
2018-08-12T10:32:34.749Z,26.10
2018-08-12T10:35:05.033Z,26.10
2018-08-12T10:37:35.624Z,26.10
2018-08-12T10:40:06.755Z,26.10
2018-08-12T10:42:36.729Z,26.20
2018-08-12T10:45:11.814Z,26.30
2018-08-12T10:50:34.372Z,26.50
2018-08-12T10:53:05.578Z,26.70
2018-08-12T10:55:36.864Z,26.80
2018-08-12T10:58:07.398Z,26.90
2018-08-12T11:00:38.793Z,26.90
2018-08-12T11:03:09.251Z,27.10
2018-08-12T11:05:39.173Z,27.30
2018-08-12T11:11:06.752Z,27.50
2018-08-12T11:16:12.296Z,27.80
2018-08-12T11:18:42.358Z,27.90
2018-08-12T11:27:00.088Z,27.60
2018-08-12T11:29:30.648Z,27.20
2018-08-12T11:32:01.071Z,27.10
2018-08-12T11:34:32.632Z,27.00
2018-08-12T11:37:02.743Z,27.00
2018-08-12T11:39:32.872Z,26.90
2018-08-12T11:42:08.281Z,27.00
2018-08-12T11:44:39.089Z,27.10
2018-08-12T11:47:10.360Z,27.30
2018-08-12T11:49:40.373Z,27.40
2018-08-12T11:52:10.917Z,27.40
2018-08-12T12:00:27.333Z,27.70
2018-08-12T12:02:57.675Z,27.90
2018-08-12T12:05:28.676Z,27.80
2018-08-12T12:08:04.400Z,27.90
2018-08-12T12:10:34.327Z,28.00
2018-08-12T12:13:03.579Z,28.20
2018-08-12T12:18:25.795Z,28.60
2018-08-12T12:20:55.525Z,28.80
2018-08-12T12:23:25.728Z,29.00
2018-08-12T12:25:56.212Z,29.10
2018-08-12T12:28:31.281Z,29.10
2018-08-12T12:31:01.190Z,29.10
2018-08-12T12:33:31.299Z,29.00
2018-08-12T12:36:00.322Z,29.00
2018-08-12T12:38:29.123Z,28.80
2018-08-12T12:40:58.140Z,28.90
2018-08-12T12:43:27.024Z,29.00
2018-08-12T12:45:55.984Z,29.10
2018-08-12T12:48:25.782Z,29.10
2018-08-12T12:53:47.726Z,29.10
2018-08-12T12:56:16.640Z,29.20
2018-08-12T12:58:45.437Z,29.10
2018-08-12T13:01:14.143Z,29.10
2018-08-12T13:03:42.872Z,29.10
2018-08-12T13:06:11.674Z,29.10
2018-08-12T13:08:40.370Z,29.20
2018-08-12T13:11:09.269Z,29.40
2018-08-12T13:13:38.182Z,29.30
2018-08-12T13:16:07.098Z,29.30
2018-08-12T13:18:36.004Z,29.20
2018-08-12T13:21:04.829Z,29.20
2018-08-12T13:23:33.672Z,29.20
2018-08-12T13:26:02.681Z,29.20
2018-08-12T13:28:31.442Z,29.20
2018-08-12T13:31:00.515Z,29.00
2018-08-12T13:33:29.406Z,29.00
2018-08-12T13:35:58.262Z,29.10
2018-08-12T13:38:27.467Z,29.30
2018-08-12T13:40:56.346Z,29.30
2018-08-12T13:43:25.065Z,29.40
2018-08-12T13:45:54.085Z,29.30
2018-08-12T13:48:23.025Z,29.40
2018-08-12T13:50:51.957Z,29.40
2018-08-12T13:53:21.547Z,29.30
2018-08-12T13:55:50.546Z,29.40
2018-08-12T13:58:21.351Z,29.40
2018-08-12T14:00:50.106Z,29.20
2018-08-12T14:03:18.972Z,29.20
2018-08-12T14:05:47.766Z,29.20
2018-08-12T14:08:17.016Z,29.20
2018-08-12T14:10:46.141Z,29.10
2018-08-12T14:13:15.533Z,29.00
2018-08-12T14:15:44.509Z,28.90
2018-08-12T14:18:13.887Z,28.90
2018-08-12T14:20:43.385Z,28.90
2018-08-12T14:23:12.141Z,28.80
2018-08-12T14:25:41.429Z,28.80
2018-08-12T14:28:11.445Z,28.70
2018-08-12T14:30:40.805Z,28.60
2018-08-12T14:33:10.688Z,28.60
2018-08-12T14:35:40.043Z,28.50
2018-08-12T14:38:09.237Z,28.50
2018-08-12T14:40:38.385Z,28.50
2018-08-12T14:43:07.819Z,28.50
2018-08-12T14:45:37.782Z,28.40
2018-08-12T14:48:06.983Z,28.30
2018-08-12T14:50:36.714Z,28.20
2018-08-12T14:53:06.052Z,28.00
2018-08-12T14:55:35.096Z,27.80
2018-08-12T14:58:03.937Z,27.70
2018-08-12T15:00:33.144Z,27.70
2018-08-12T15:03:03.072Z,27.60
2018-08-12T15:05:32.038Z,27.70
2018-08-12T15:08:01.000Z,27.70
2018-08-12T15:10:30.470Z,27.80
2018-08-12T15:12:59.439Z,27.90
2018-08-12T15:15:28.333Z,28.00
2018-08-12T15:17:57.150Z,28.10
2018-08-12T15:20:26.107Z,28.10
2018-08-12T15:22:55.166Z,28.20
2018-08-12T15:25:24.982Z,28.30
2018-08-12T15:27:58.781Z,28.30
2018-08-12T15:30:27.676Z,28.30
2018-08-12T15:32:56.837Z,28.10
2018-08-12T15:35:26.217Z,27.90
2018-08-12T15:37:55.239Z,27.80
2018-08-12T15:40:24.429Z,27.70
2018-08-12T15:42:53.559Z,27.40
2018-08-12T15:46:53.645Z,27.20
2018-08-12T15:49:22.546Z,27.00
2018-08-12T15:51:52.737Z,26.60
2018-08-12T15:54:22.056Z,26.40
2018-08-12T15:56:52.401Z,26.20
2018-08-12T15:59:21.927Z,26.10
2018-08-12T16:01:50.889Z,25.90
2018-08-12T16:04:19.782Z,25.80
2018-08-12T16:06:48.967Z,25.70
2018-08-12T16:09:17.952Z,25.60
2018-08-12T16:11:46.824Z,25.50
2018-08-12T16:14:16.976Z,25.40
2018-08-12T16:16:45.774Z,25.30
2018-08-12T16:19:14.926Z,25.20
2018-08-12T16:21:44.380Z,25.10
2018-08-12T16:24:13.258Z,25.00
2018-08-12T16:26:42.465Z,24.90
2018-08-12T16:29:12.553Z,24.80
2018-08-12T16:31:43.048Z,24.80
2018-08-12T16:34:12.172Z,24.80
2018-08-12T16:36:42.410Z,24.70
2018-08-12T16:39:12.946Z,24.60
2018-08-12T16:41:43.288Z,24.50
2018-08-12T16:44:14.464Z,24.40
2018-08-12T16:46:43.631Z,24.40
2018-08-12T16:49:12.468Z,24.30
2018-08-12T16:51:41.714Z,24.20
2018-08-12T16:54:10.686Z,24.00
2018-08-12T16:56:41.165Z,24.00
2018-08-12T16:59:10.066Z,23.80
2018-08-12T17:01:39.350Z,23.70
2018-08-12T17:04:08.159Z,23.60
2018-08-12T17:06:37.012Z,23.50
2018-08-12T17:09:08.885Z,23.40
2018-08-12T17:11:38.651Z,23.20
2018-08-12T17:14:08.839Z,23.10
2018-08-12T17:16:38.167Z,23.00
2018-08-12T17:19:07.309Z,22.90
2018-08-12T17:21:36.656Z,22.80
2018-08-12T17:24:05.614Z,22.70
2018-08-12T17:26:34.398Z,22.60
2018-08-12T17:29:04.724Z,22.50
2018-08-12T17:31:36.212Z,22.40
2018-08-12T17:34:05.719Z,22.20
2018-08-12T17:36:34.391Z,22.10
2018-08-12T17:39:03.433Z,21.90
2018-08-12T17:41:32.401Z,21.80
2018-08-12T17:44:02.058Z,21.70
2018-08-12T17:46:31.544Z,21.60
2018-08-12T17:49:00.636Z,21.60
2018-08-12T17:51:29.730Z,21.40
2018-08-12T17:54:00.455Z,21.30
2018-08-12T17:56:30.627Z,21.10
2018-08-12T17:58:59.744Z,20.90
2018-08-12T18:01:28.788Z,20.80
2018-08-12T18:03:57.693Z,20.70
2018-08-12T18:06:27.252Z,20.60
2018-08-12T18:08:56.463Z,20.50
2018-08-12T18:11:25.077Z,20.40
2018-08-12T18:13:53.868Z,20.30
2018-08-12T18:16:22.780Z,20.20
2018-08-12T18:18:52.333Z,20.10
2018-08-12T18:21:21.372Z,20.00
2018-08-12T18:23:50.669Z,19.90
2018-08-12T18:26:19.751Z,19.80
2018-08-12T18:28:49.393Z,19.70
2018-08-12T18:31:18.374Z,19.60
2018-08-12T18:33:47.090Z,19.60
2018-08-12T18:36:15.912Z,19.50
2018-08-12T18:38:44.802Z,19.40
2018-08-12T18:41:13.626Z,19.30
2018-08-12T18:43:43.696Z,19.30
2018-08-12T18:46:12.665Z,19.20
2018-08-12T18:48:41.484Z,19.10
2018-08-12T18:51:10.605Z,19.00
2018-08-12T18:53:40.249Z,18.80
2018-08-12T18:56:09.173Z,18.70
2018-08-12T18:58:37.934Z,18.50
2018-08-12T19:01:07.104Z,18.30
2018-08-12T19:03:36.078Z,18.20
2018-08-12T19:06:05.521Z,18.00
2018-08-12T19:08:34.510Z,17.90
2018-08-12T19:11:03.284Z,17.80
2018-08-12T19:13:32.184Z,17.70
2018-08-12T19:16:01.015Z,17.60
2018-08-12T19:18:29.753Z,17.50
2018-08-12T19:20:58.613Z,17.40
2018-08-12T19:23:28.251Z,17.40
2018-08-12T19:25:57.111Z,17.30
2018-08-12T19:28:26.071Z,17.30
2018-08-12T19:30:55.104Z,17.10
2018-08-12T19:33:24.328Z,17.00
2018-08-12T19:35:53.212Z,17.00
2018-08-12T19:38:22.373Z,16.90
2018-08-12T19:40:51.305Z,16.80
2018-08-12T19:43:20.172Z,16.80
2018-08-12T19:45:49.419Z,16.80
2018-08-12T19:48:18.282Z,16.80
2018-08-12T19:50:47.462Z,16.70
2018-08-12T19:53:16.713Z,16.70
2018-08-12T19:55:45.772Z,16.70
2018-08-12T19:58:21.118Z,16.70
2018-08-12T20:00:50.678Z,16.60
2018-08-12T20:03:20.151Z,16.50
2018-08-12T20:05:49.053Z,16.40
2018-08-12T20:08:17.718Z,16.30
2018-08-12T20:10:46.829Z,16.30
2018-08-12T20:13:15.770Z,16.20
2018-08-12T20:15:45.477Z,16.20
2018-08-12T20:18:14.333Z,16.20
2018-08-12T20:20:43.591Z,16.10
2018-08-12T20:23:12.632Z,16.10
2018-08-12T20:25:41.685Z,16.00
2018-08-12T20:28:10.539Z,16.00
2018-08-12T20:30:40.336Z,16.00
2018-08-12T20:33:09.209Z,16.00
2018-08-12T20:35:38.483Z,16.00
2018-08-12T20:38:07.766Z,16.00
2018-08-12T20:40:36.766Z,16.00
2018-08-12T20:43:05.612Z,15.90
2018-08-12T20:45:34.534Z,15.90
2018-08-12T20:48:03.164Z,15.90
2018-08-12T20:50:31.731Z,15.80
2018-08-12T20:53:00.643Z,15.80
2018-08-12T20:55:29.273Z,15.60
2018-08-12T20:57:58.003Z,15.50
2018-08-12T21:00:28.355Z,15.40
2018-08-12T21:02:56.989Z,15.30
2018-08-12T21:05:24.946Z,15.20
2018-08-12T21:07:53.449Z,15.20
2018-08-12T21:10:22.523Z,15.10
2018-08-12T21:12:50.572Z,15.10
2018-08-12T21:15:19.361Z,15.00
2018-08-12T21:17:48.252Z,14.90
2018-08-12T21:20:17.087Z,14.80
2018-08-12T21:22:46.286Z,14.80
2018-08-12T21:25:16.004Z,14.80
2018-08-12T21:27:45.304Z,14.70
2018-08-12T21:30:14.785Z,14.60
2018-08-12T21:32:44.063Z,14.60
2018-08-12T21:35:13.218Z,14.60
2018-08-12T21:37:42.174Z,14.50
2018-08-12T21:40:11.319Z,14.50
2018-08-12T21:42:40.155Z,14.50
2018-08-12T21:48:01.544Z,14.50
2018-08-12T21:50:30.558Z,14.50
2018-08-12T21:52:59.826Z,14.50
2018-08-12T21:55:28.746Z,14.50
2018-08-12T21:57:57.734Z,14.40
2018-08-12T22:00:26.108Z,14.40
2018-08-12T22:02:55.262Z,14.40
2018-08-12T22:05:25.036Z,14.40
2018-08-12T22:07:53.958Z,14.40
2018-08-12T22:10:22.836Z,14.40
2018-08-12T22:12:52.222Z,14.40
2018-08-12T22:15:21.195Z,14.40
2018-08-12T22:17:49.993Z,14.30
2018-08-12T22:20:18.227Z,14.30
2018-08-12T22:22:46.157Z,14.20
2018-08-12T22:25:14.263Z,14.10
2018-08-12T22:27:42.121Z,14.10
2018-08-12T22:30:11.719Z,14.00
2018-08-12T22:32:39.960Z,13.90
2018-08-12T22:35:07.957Z,13.90
2018-08-12T22:37:37.110Z,13.80
2018-08-12T22:40:05.966Z,13.80
2018-08-12T22:42:34.802Z,13.80
2018-08-12T22:45:03.030Z,13.80
2018-08-12T22:47:30.920Z,13.70
2018-08-12T22:49:59.099Z,13.70
2018-08-12T22:52:27.150Z,13.60
2018-08-12T22:54:55.260Z,13.60
2018-08-12T22:57:23.648Z,13.50
2018-08-12T22:59:51.648Z,13.50
2018-08-12T23:02:19.773Z,13.50
2018-08-12T23:04:47.851Z,13.50
2018-08-12T23:07:16.149Z,13.50
2018-08-12T23:09:44.387Z,13.40
2018-08-12T23:12:13.590Z,13.40
2018-08-12T23:14:41.724Z,13.40
2018-08-12T23:17:09.865Z,13.30
2018-08-12T23:19:38.703Z,13.30
2018-08-12T23:22:06.809Z,13.20
2018-08-12T23:24:35.115Z,13.20
2018-08-12T23:27:04.040Z,13.10
2018-08-12T23:29:32.517Z,13.10
2018-08-12T23:32:00.362Z,13.00
2018-08-12T23:34:29.293Z,13.00
2018-08-12T23:36:57.454Z,12.90
2018-08-12T23:39:25.595Z,12.90
2018-08-12T23:41:53.580Z,12.80
2018-08-12T23:44:21.833Z,12.80
2018-08-12T23:46:50.016Z,12.80
2018-08-12T23:49:18.510Z,12.80
2018-08-12T23:51:46.853Z,12.80
2018-08-12T23:54:15.663Z,12.80
2018-08-12T23:56:43.712Z,12.80
2018-08-12T23:59:11.727Z,12.90
